sensor_id;sensor_type;location;lat;lon;timestamp;P1;durP1;ratioP1;P2;durP2;ratioP2
74679;SDS011;63211;48.548;2.704;2023-04-01T00:01:57;0.52;;;0.00;;
74679;SDS011;63211;48.548;2.704;2023-04-01T00:04:24;0.55;;;0.00;;
74679;SDS011;63211;48.548;2.704;2023-04-01T00:06:51;1.83;;;0.15;;
74679;SDS011;63211;48.548;2.704;2023-04-01T00:09:17;2.88;;;0.38;;
74679;SDS011;63211;48.548;2.704;2023-04-01T00:11:45;0.13;;;0.10;;
74679;SDS011;63211;48.548;2.704;2023-04-01T00:14:12;0.38;;;0.00;;
74679;SDS011;63211;48.548;2.704;2023-04-01T00:16:39;0.57;;;0.10;;
74679;SDS011;63211;48.548;2.704;2023-04-01T00:19:05;0.68;;;0.08;;
74679;SDS011;63211;48.548;2.704;2023-04-01T00:21:32;1.58;;;0.10;;
74679;SDS011;63211;48.548;2.704;2023-04-01T00:23:59;0.45;;;0.13;;
74679;SDS011;63211;48.548;2.704;2023-04-01T00:26:26;2.00;;;0.10;;
74679;SDS011;63211;48.548;2.704;2023-04-01T00:28:54;0.57;;;0.10;;
74679;SDS011;63211;48.548;2.704;2023-04-01T00:31:21;0.68;;;0.10;;
74679;SDS011;63211;48.548;2.704;2023-04-01T00:33:48;0.57;;;0.00;;
74679;SDS011;63211;48.548;2.704;2023-04-01T00:36:15;0.38;;;0.32;;
74679;SDS011;63211;48.548;2.704;2023-04-01T00:38:42;0.88;;;0.15;;
74679;SDS011;63211;48.548;2.704;2023-04-01T00:41:10;0.55;;;0.10;;
74679;SDS011;63211;48.548;2.704;2023-04-01T00:43:39;0.50;;;0.10;;
74679;SDS011;63211;48.548;2.704;2023-04-01T00:46:08;0.77;;;0.20;;
74679;SDS011;63211;48.548;2.704;2023-04-01T00:48:35;1.33;;;0.10;;
74679;SDS011;63211;48.548;2.704;2023-04-01T00:51:05;1.27;;;0.28;;
74679;SDS011;63211;48.548;2.704;2023-04-01T00:53:34;1.30;;;0.30;;
74679;SDS011;63211;48.548;2.704;2023-04-01T00:56:07;1.88;;;0.03;;
74679;SDS011;63211;48.548;2.704;2023-04-01T00:58:40;0.88;;;0.00;;
74679;SDS011;63211;48.548;2.704;2023-04-01T01:01:11;0.80;;;0.05;;
74679;SDS011;63211;48.548;2.704;2023-04-01T01:03:38;0.30;;;0.10;;
74679;SDS011;63211;48.548;2.704;2023-04-01T01:06:08;2.65;;;0.15;;
74679;SDS011;63211;48.548;2.704;2023-04-01T01:08:52;0.20;;;0.00;;
74679;SDS011;63211;48.548;2.704;2023-04-01T01:11:35;1.45;;;0.10;;
74679;SDS011;63211;48.548;2.704;2023-04-01T01:14:06;1.45;;;0.10;;
74679;SDS011;63211;48.548;2.704;2023-04-01T01:16:41;1.45;;;0.13;;
74679;SDS011;63211;48.548;2.704;2023-04-01T01:19:18;0.88;;;0.10;;
74679;SDS011;63211;48.548;2.704;2023-04-01T01:22:12;0.68;;;0.10;;
74679;SDS011;63211;48.548;2.704;2023-04-01T01:27:33;0.45;;;0.03;;
74679;SDS011;63211;48.548;2.704;2023-04-01T01:30:07;0.45;;;0.05;;
74679;SDS011;63211;48.548;2.704;2023-04-01T01:35:50;0.08;;;0.00;;
74679;SDS011;63211;48.548;2.704;2023-04-01T01:38:21;0.85;;;0.10;;
74679;SDS011;63211;48.548;2.704;2023-04-01T01:40:50;1.02;;;0.10;;
74679;SDS011;63211;48.548;2.704;2023-04-01T01:43:20;1.02;;;0.20;;
74679;SDS011;63211;48.548;2.704;2023-04-01T01:45:50;1.50;;;0.10;;
74679;SDS011;63211;48.548;2.704;2023-04-01T01:48:20;0.13;;;0.00;;
74679;SDS011;63211;48.548;2.704;2023-04-01T01:50:46;0.17;;;0.00;;
74679;SDS011;63211;48.548;2.704;2023-04-01T01:53:16;0.70;;;0.32;;
74679;SDS011;63211;48.548;2.704;2023-04-01T01:55:43;2.13;;;0.17;;
74679;SDS011;63211;48.548;2.704;2023-04-01T01:58:12;0.25;;;0.08;;
74679;SDS011;63211;48.548;2.704;2023-04-01T02:00:43;0.10;;;0.00;;
74679;SDS011;63211;48.548;2.704;2023-04-01T02:03:12;1.05;;;0.30;;
74679;SDS011;63211;48.548;2.704;2023-04-01T02:05:40;0.20;;;0.10;;
74679;SDS011;63211;48.548;2.704;2023-04-01T02:08:09;0.85;;;0.20;;
74679;SDS011;63211;48.548;2.704;2023-04-01T02:10:40;0.98;;;0.05;;
74679;SDS011;63211;48.548;2.704;2023-04-01T02:13:10;1.77;;;0.20;;
74679;SDS011;63211;48.548;2.704;2023-04-01T02:15:42;1.25;;;0.20;;
74679;SDS011;63211;48.548;2.704;2023-04-01T02:18:13;0.47;;;0.10;;
74679;SDS011;63211;48.548;2.704;2023-04-01T02:20:41;0.60;;;0.00;;
74679;SDS011;63211;48.548;2.704;2023-04-01T02:23:11;0.30;;;0.00;;
74679;SDS011;63211;48.548;2.704;2023-04-01T02:25:39;0.88;;;0.20;;
74679;SDS011;63211;48.548;2.704;2023-04-01T02:28:08;0.73;;;0.10;;
74679;SDS011;63211;48.548;2.704;2023-04-01T02:30:36;0.22;;;0.08;;
74679;SDS011;63211;48.548;2.704;2023-04-01T02:33:06;1.33;;;0.20;;
74679;SDS011;63211;48.548;2.704;2023-04-01T02:35:33;0.77;;;0.10;;
74679;SDS011;63211;48.548;2.704;2023-04-01T02:38:01;0.45;;;0.03;;
74679;SDS011;63211;48.548;2.704;2023-04-01T02:40:29;0.90;;;0.10;;
74679;SDS011;63211;48.548;2.704;2023-04-01T02:42:56;0.20;;;0.00;;
74679;SDS011;63211;48.548;2.704;2023-04-01T02:45:22;0.43;;;0.10;;
74679;SDS011;63211;48.548;2.704;2023-04-01T02:47:49;0.90;;;0.10;;
74679;SDS011;63211;48.548;2.704;2023-04-01T02:50:15;0.43;;;0.10;;
74679;SDS011;63211;48.548;2.704;2023-04-01T02:52:42;0.65;;;0.10;;
74679;SDS011;63211;48.548;2.704;2023-04-01T02:55:09;0.70;;;0.20;;
74679;SDS011;63211;48.548;2.704;2023-04-01T02:57:37;0.40;;;0.03;;
74679;SDS011;63211;48.548;2.704;2023-04-01T03:00:04;0.43;;;0.00;;
74679;SDS011;63211;48.548;2.704;2023-04-01T03:02:36;0.15;;;0.00;;
74679;SDS011;63211;48.548;2.704;2023-04-01T03:05:03;0.50;;;0.03;;
74679;SDS011;63211;48.548;2.704;2023-04-01T03:07:30;0.15;;;0.00;;
74679;SDS011;63211;48.548;2.704;2023-04-01T03:09:57;0.90;;;0.05;;
74679;SDS011;63211;48.548;2.704;2023-04-01T03:12:24;0.55;;;0.10;;
74679;SDS011;63211;48.548;2.704;2023-04-01T03:14:52;1.25;;;0.20;;
74679;SDS011;63211;48.548;2.704;2023-04-01T03:17:18;0.13;;;0.00;;
74679;SDS011;63211;48.548;2.704;2023-04-01T03:19:45;0.50;;;0.00;;
74679;SDS011;63211;48.548;2.704;2023-04-01T03:22:11;0.08;;;0.00;;
74679;SDS011;63211;48.548;2.704;2023-04-01T03:24:38;0.10;;;0.00;;
74679;SDS011;63211;48.548;2.704;2023-04-01T03:27:05;0.70;;;0.00;;
74679;SDS011;63211;48.548;2.704;2023-04-01T03:29:31;0.40;;;0.10;;
74679;SDS011;63211;48.548;2.704;2023-04-01T03:31:59;0.00;;;0.00;;
74679;SDS011;63211;48.548;2.704;2023-04-01T03:34:26;1.42;;;0.10;;
74679;SDS011;63211;48.548;2.704;2023-04-01T03:36:52;0.88;;;0.10;;
74679;SDS011;63211;48.548;2.704;2023-04-01T03:39:19;0.60;;;0.00;;
74679;SDS011;63211;48.548;2.704;2023-04-01T03:41:46;0.25;;;0.10;;
74679;SDS011;63211;48.548;2.704;2023-04-01T03:44:13;0.10;;;0.00;;
74679;SDS011;63211;48.548;2.704;2023-04-01T03:46:40;0.13;;;0.00;;
74679;SDS011;63211;48.548;2.704;2023-04-01T03:49:08;0.52;;;0.20;;
74679;SDS011;63211;48.548;2.704;2023-04-01T03:51:36;1.27;;;0.13;;
74679;SDS011;63211;48.548;2.704;2023-04-01T03:54:03;0.52;;;0.00;;
74679;SDS011;63211;48.548;2.704;2023-04-01T03:56:30;0.85;;;0.10;;
74679;SDS011;63211;48.548;2.704;2023-04-01T03:58:57;7.00;;;0.20;;
74679;SDS011;63211;48.548;2.704;2023-04-01T04:01:24;0.05;;;0.00;;
74679;SDS011;63211;48.548;2.704;2023-04-01T04:03:51;0.73;;;0.00;;
74679;SDS011;63211;48.548;2.704;2023-04-01T04:06:19;0.10;;;0.00;;
74679;SDS011;63211;48.548;2.704;2023-04-01T04:08:45;2.72;;;0.03;;
74679;SDS011;63211;48.548;2.704;2023-04-01T04:11:12;1.15;;;0.10;;
74679;SDS011;63211;48.548;2.704;2023-04-01T04:13:40;0.20;;;0.00;;
74679;SDS011;63211;48.548;2.704;2023-04-01T04:16:07;0.63;;;0.10;;
74679;SDS011;63211;48.548;2.704;2023-04-01T04:18:34;0.47;;;0.10;;
74679;SDS011;63211;48.548;2.704;2023-04-01T04:21:01;0.13;;;0.03;;
74679;SDS011;63211;48.548;2.704;2023-04-01T04:23:29;1.15;;;0.10;;
74679;SDS011;63211;48.548;2.704;2023-04-01T04:25:59;0.00;;;0.00;;
74679;SDS011;63211;48.548;2.704;2023-04-01T04:28:27;0.90;;;0.22;;
74679;SDS011;63211;48.548;2.704;2023-04-01T04:30:54;0.20;;;0.00;;
74679;SDS011;63211;48.548;2.704;2023-04-01T04:33:21;0.70;;;0.20;;
74679;SDS011;63211;48.548;2.704;2023-04-01T04:35:48;0.80;;;0.00;;
74679;SDS011;63211;48.548;2.704;2023-04-01T04:38:15;0.52;;;0.20;;
74679;SDS011;63211;48.548;2.704;2023-04-01T04:40:44;0.20;;;0.00;;
74679;SDS011;63211;48.548;2.704;2023-04-01T04:43:11;0.20;;;0.00;;
74679;SDS011;63211;48.548;2.704;2023-04-01T04:45:39;0.43;;;0.17;;
74679;SDS011;63211;48.548;2.704;2023-04-01T04:48:06;0.30;;;0.30;;
74679;SDS011;63211;48.548;2.704;2023-04-01T04:50:34;0.80;;;0.10;;
74679;SDS011;63211;48.548;2.704;2023-04-01T04:53:00;0.08;;;0.00;;
74679;SDS011;63211;48.548;2.704;2023-04-01T04:55:27;0.20;;;0.00;;
74679;SDS011;63211;48.548;2.704;2023-04-01T04:57:55;0.45;;;0.00;;
74679;SDS011;63211;48.548;2.704;2023-04-01T05:00:22;0.60;;;0.03;;
74679;SDS011;63211;48.548;2.704;2023-04-01T05:02:49;0.20;;;0.00;;
74679;SDS011;63211;48.548;2.704;2023-04-01T05:05:15;0.00;;;0.00;;
74679;SDS011;63211;48.548;2.704;2023-04-01T05:07:42;0.22;;;0.00;;
74679;SDS011;63211;48.548;2.704;2023-04-01T05:10:08;0.00;;;0.00;;
74679;SDS011;63211;48.548;2.704;2023-04-01T05:12:35;0.28;;;0.00;;
74679;SDS011;63211;48.548;2.704;2023-04-01T05:15:05;0.25;;;0.00;;
74679;SDS011;63211;48.548;2.704;2023-04-01T05:17:33;0.20;;;0.10;;
74679;SDS011;63211;48.548;2.704;2023-04-01T05:20:00;0.30;;;0.05;;
74679;SDS011;63211;48.548;2.704;2023-04-01T05:22:27;0.10;;;0.00;;
74679;SDS011;63211;48.548;2.704;2023-04-01T05:24:54;0.10;;;0.10;;
74679;SDS011;63211;48.548;2.704;2023-04-01T05:27:21;0.60;;;0.00;;
74679;SDS011;63211;48.548;2.704;2023-04-01T05:29:47;1.13;;;0.30;;
74679;SDS011;63211;48.548;2.704;2023-04-01T05:32:16;0.30;;;0.00;;
74679;SDS011;63211;48.548;2.704;2023-04-01T05:34:42;0.57;;;0.10;;
74679;SDS011;63211;48.548;2.704;2023-04-01T05:37:09;0.10;;;0.00;;
74679;SDS011;63211;48.548;2.704;2023-04-01T05:39:36;0.20;;;0.00;;
74679;SDS011;63211;48.548;2.704;2023-04-01T05:42:04;0.05;;;0.00;;
74679;SDS011;63211;48.548;2.704;2023-04-01T05:44:32;1.00;;;0.00;;
74679;SDS011;63211;48.548;2.704;2023-04-01T05:46:58;0.60;;;0.00;;
74679;SDS011;63211;48.548;2.704;2023-04-01T05:49:26;0.20;;;0.00;;
74679;SDS011;63211;48.548;2.704;2023-04-01T05:51:53;0.52;;;0.00;;
74679;SDS011;63211;48.548;2.704;2023-04-01T05:54:20;0.73;;;0.00;;
74679;SDS011;63211;48.548;2.704;2023-04-01T05:56:46;0.47;;;0.08;;
74679;SDS011;63211;48.548;2.704;2023-04-01T05:59:13;1.10;;;0.10;;
74679;SDS011;63211;48.548;2.704;2023-04-01T06:01:39;4.40;;;0.00;;
74679;SDS011;63211;48.548;2.704;2023-04-01T06:04:06;0.52;;;0.10;;
74679;SDS011;63211;48.548;2.704;2023-04-01T06:06:37;0.13;;;0.00;;
74679;SDS011;63211;48.548;2.704;2023-04-01T06:09:07;0.08;;;0.00;;
74679;SDS011;63211;48.548;2.704;2023-04-01T06:11:40;0.60;;;0.00;;
74679;SDS011;63211;48.548;2.704;2023-04-01T06:14:20;1.08;;;0.22;;
74679;SDS011;63211;48.548;2.704;2023-04-01T06:16:57;0.08;;;0.00;;
74679;SDS011;63211;48.548;2.704;2023-04-01T06:19:41;0.52;;;0.00;;
74679;SDS011;63211;48.548;2.704;2023-04-01T06:25:15;0.00;;;0.00;;
74679;SDS011;63211;48.548;2.704;2023-04-01T06:27:54;0.63;;;0.00;;
74679;SDS011;63211;48.548;2.704;2023-04-01T06:30:35;0.15;;;0.00;;
74679;SDS011;63211;48.548;2.704;2023-04-01T06:33:13;0.20;;;0.00;;
74679;SDS011;63211;48.548;2.704;2023-04-01T06:35:59;0.40;;;0.00;;
74679;SDS011;63211;48.548;2.704;2023-04-01T06:41:33;0.10;;;0.00;;
74679;SDS011;63211;48.548;2.704;2023-04-01T06:44:21;0.05;;;0.00;;
74679;SDS011;63211;48.548;2.704;2023-04-01T06:47:01;0.98;;;0.05;;
74679;SDS011;63211;48.548;2.704;2023-04-01T06:49:41;0.20;;;0.00;;
74679;SDS011;63211;48.548;2.704;2023-04-01T06:52:18;0.10;;;0.00;;
74679;SDS011;63211;48.548;2.704;2023-04-01T06:54:53;1.23;;;0.00;;
74679;SDS011;63211;48.548;2.704;2023-04-01T06:57:28;0.55;;;0.10;;
74679;SDS011;63211;48.548;2.704;2023-04-01T06:59:58;0.00;;;0.00;;
74679;SDS011;63211;48.548;2.704;2023-04-01T07:02:29;0.00;;;0.00;;
74679;SDS011;63211;48.548;2.704;2023-04-01T07:05:03;0.80;;;0.08;;
74679;SDS011;63211;48.548;2.704;2023-04-01T07:07:32;0.20;;;0.00;;
74679;SDS011;63211;48.548;2.704;2023-04-01T07:10:05;0.10;;;0.00;;
74679;SDS011;63211;48.548;2.704;2023-04-01T07:12:39;0.47;;;0.10;;
74679;SDS011;63211;48.548;2.704;2023-04-01T07:15:13;0.98;;;0.10;;
74679;SDS011;63211;48.548;2.704;2023-04-01T07:17:43;0.25;;;0.00;;
74679;SDS011;63211;48.548;2.704;2023-04-01T07:20:13;0.00;;;0.00;;
74679;SDS011;63211;48.548;2.704;2023-04-01T07:22:46;0.15;;;0.00;;
74679;SDS011;63211;48.548;2.704;2023-04-01T07:25:17;0.08;;;0.00;;
74679;SDS011;63211;48.548;2.704;2023-04-01T07:27:46;0.20;;;0.00;;
74679;SDS011;63211;48.548;2.704;2023-04-01T07:30:13;0.52;;;0.00;;
74679;SDS011;63211;48.548;2.704;2023-04-01T07:32:42;0.28;;;0.10;;
74679;SDS011;63211;48.548;2.704;2023-04-01T07:35:15;0.08;;;0.00;;
74679;SDS011;63211;48.548;2.704;2023-04-01T07:37:51;0.20;;;0.00;;
74679;SDS011;63211;48.548;2.704;2023-04-01T07:40:28;0.35;;;0.00;;
74679;SDS011;63211;48.548;2.704;2023-04-01T07:43:11;1.70;;;0.00;;
74679;SDS011;63211;48.548;2.704;2023-04-01T07:45:54;0.00;;;0.00;;
74679;SDS011;63211;48.548;2.704;2023-04-01T07:48:30;0.00;;;0.00;;
74679;SDS011;63211;48.548;2.704;2023-04-01T07:51:06;0.30;;;0.17;;
74679;SDS011;63211;48.548;2.704;2023-04-01T07:53:41;0.08;;;0.00;;
74679;SDS011;63211;48.548;2.704;2023-04-01T07:56:14;0.32;;;0.00;;
74679;SDS011;63211;48.548;2.704;2023-04-01T07:58:47;0.22;;;0.00;;
74679;SDS011;63211;48.548;2.704;2023-04-01T08:01:21;0.30;;;0.00;;
74679;SDS011;63211;48.548;2.704;2023-04-01T08:03:58;0.28;;;0.00;;
74679;SDS011;63211;48.548;2.704;2023-04-01T08:06:44;0.15;;;0.00;;
74679;SDS011;63211;48.548;2.704;2023-04-01T08:09:18;0.10;;;0.00;;
74679;SDS011;63211;48.548;2.704;2023-04-01T08:11:57;0.10;;;0.00;;
74679;SDS011;63211;48.548;2.704;2023-04-01T08:14:30;0.90;;;0.20;;
74679;SDS011;63211;48.548;2.704;2023-04-01T08:17:06;2.35;;;0.35;;
74679;SDS011;63211;48.548;2.704;2023-04-01T08:19:44;0.75;;;0.30;;
74679;SDS011;63211;48.548;2.704;2023-04-01T08:24:51;1.90;;;0.00;;
74679;SDS011;63211;48.548;2.704;2023-04-01T08:27:24;1.52;;;0.15;;
74679;SDS011;63211;48.548;2.704;2023-04-01T08:29:58;0.20;;;0.00;;
74679;SDS011;63211;48.548;2.704;2023-04-01T08:32:30;2.08;;;0.00;;
74679;SDS011;63211;48.548;2.704;2023-04-01T08:35:07;0.80;;;0.10;;
74679;SDS011;63211;48.548;2.704;2023-04-01T08:37:40;0.32;;;0.00;;
74679;SDS011;63211;48.548;2.704;2023-04-01T08:40:17;0.47;;;0.10;;
74679;SDS011;63211;48.548;2.704;2023-04-01T08:43:03;3.08;;;0.17;;
74679;SDS011;63211;48.548;2.704;2023-04-01T08:45:41;1.15;;;0.30;;
74679;SDS011;63211;48.548;2.704;2023-04-01T08:48:17;0.85;;;0.10;;
74679;SDS011;63211;48.548;2.704;2023-04-01T08:54:04;0.52;;;0.00;;
74679;SDS011;63211;48.548;2.704;2023-04-01T08:56:47;0.45;;;0.00;;
74679;SDS011;63211;48.548;2.704;2023-04-01T08:59:26;0.03;;;0.00;;
74679;SDS011;63211;48.548;2.704;2023-04-01T09:02:05;0.77;;;0.20;;
74679;SDS011;63211;48.548;2.704;2023-04-01T09:04:53;2.03;;;0.10;;
74679;SDS011;63211;48.548;2.704;2023-04-01T09:07:40;1.10;;;0.00;;
74679;SDS011;63211;48.548;2.704;2023-04-01T09:10:21;0.10;;;0.00;;
74679;SDS011;63211;48.548;2.704;2023-04-01T09:12:59;0.47;;;0.13;;
74679;SDS011;63211;48.548;2.704;2023-04-01T09:15:40;0.00;;;0.00;;
74679;SDS011;63211;48.548;2.704;2023-04-01T09:18:38;0.30;;;0.05;;
74679;SDS011;63211;48.548;2.704;2023-04-01T09:21:24;0.50;;;0.00;;
74679;SDS011;63211;48.548;2.704;2023-04-01T09:24:14;1.38;;;0.00;;
74679;SDS011;63211;48.548;2.704;2023-04-01T09:27:01;0.00;;;0.00;;
74679;SDS011;63211;48.548;2.704;2023-04-01T09:29:35;1.25;;;0.03;;
74679;SDS011;63211;48.548;2.704;2023-04-01T09:32:18;0.80;;;0.10;;
74679;SDS011;63211;48.548;2.704;2023-04-01T09:35:15;0.77;;;0.00;;
74679;SDS011;63211;48.548;2.704;2023-04-01T09:37:51;0.65;;;0.10;;
74679;SDS011;63211;48.548;2.704;2023-04-01T09:40:22;0.95;;;0.10;;
74679;SDS011;63211;48.548;2.704;2023-04-01T09:46:04;0.43;;;0.00;;
74679;SDS011;63211;48.548;2.704;2023-04-01T09:48:57;0.77;;;0.00;;
74679;SDS011;63211;48.548;2.704;2023-04-01T09:51:39;0.65;;;0.00;;
74679;SDS011;63211;48.548;2.704;2023-04-01T09:54:21;0.22;;;0.10;;
74679;SDS011;63211;48.548;2.704;2023-04-01T10:03:31;0.80;;;0.00;;
74679;SDS011;63211;48.548;2.704;2023-04-01T10:15:42;0.20;;;0.00;;
74679;SDS011;63211;48.548;2.704;2023-04-01T10:18:29;0.13;;;0.00;;
74679;SDS011;63211;48.548;2.704;2023-04-01T10:24:43;0.20;;;0.00;;
74679;SDS011;63211;48.548;2.704;2023-04-01T10:27:34;1.33;;;0.20;;
74679;SDS011;63211;48.548;2.704;2023-04-01T10:30:23;0.20;;;0.00;;
74679;SDS011;63211;48.548;2.704;2023-04-01T10:33:28;0.17;;;0.00;;
74679;SDS011;63211;48.548;2.704;2023-04-01T10:36:18;0.50;;;0.00;;
74679;SDS011;63211;48.548;2.704;2023-04-01T10:39:33;0.50;;;0.10;;
74679;SDS011;63211;48.548;2.704;2023-04-01T10:45:36;0.35;;;0.00;;
74679;SDS011;63211;48.548;2.704;2023-04-01T10:48:41;1.25;;;0.20;;
74679;SDS011;63211;48.548;2.704;2023-04-01T10:51:25;0.77;;;0.20;;
74679;SDS011;63211;48.548;2.704;2023-04-01T10:54:21;1.85;;;0.10;;
74679;SDS011;63211;48.548;2.704;2023-04-01T10:57:09;4.22;;;1.00;;
74679;SDS011;63211;48.548;2.704;2023-04-01T11:00:05;0.57;;;0.15;;
74679;SDS011;63211;48.548;2.704;2023-04-01T11:02:57;0.85;;;0.10;;
74679;SDS011;63211;48.548;2.704;2023-04-01T11:15:17;1.20;;;0.25;;
74679;SDS011;63211;48.548;2.704;2023-04-01T11:18:03;1.30;;;0.30;;
74679;SDS011;63211;48.548;2.704;2023-04-01T11:21:02;2.10;;;0.10;;
74679;SDS011;63211;48.548;2.704;2023-04-01T11:24:13;1.20;;;0.10;;
74679;SDS011;63211;48.548;2.704;2023-04-01T11:27:02;0.30;;;0.20;;
74679;SDS011;63211;48.548;2.704;2023-04-01T11:29:48;3.30;;;0.10;;
74679;SDS011;63211;48.548;2.704;2023-04-01T11:32:31;0.45;;;0.10;;
74679;SDS011;63211;48.548;2.704;2023-04-01T11:35:22;0.32;;;0.00;;
74679;SDS011;63211;48.548;2.704;2023-04-01T11:38:00;1.23;;;0.00;;
74679;SDS011;63211;48.548;2.704;2023-04-01T11:40:34;0.47;;;0.00;;
74679;SDS011;63211;48.548;2.704;2023-04-01T11:43:07;0.65;;;0.10;;
74679;SDS011;63211;48.548;2.704;2023-04-01T11:45:41;2.47;;;0.15;;
74679;SDS011;63211;48.548;2.704;2023-04-01T11:48:15;0.98;;;0.00;;
74679;SDS011;63211;48.548;2.704;2023-04-01T11:50:58;0.10;;;0.00;;
74679;SDS011;63211;48.548;2.704;2023-04-01T11:53:42;2.33;;;0.68;;
74679;SDS011;63211;48.548;2.704;2023-04-01T11:56:21;0.28;;;0.08;;
74679;SDS011;63211;48.548;2.704;2023-04-01T12:02:07;1.23;;;0.10;;
74679;SDS011;63211;48.548;2.704;2023-04-01T12:04:44;0.10;;;0.00;;
74679;SDS011;63211;48.548;2.704;2023-04-01T12:07:44;4.93;;;1.73;;
74679;SDS011;63211;48.548;2.704;2023-04-01T12:10:33;9.07;;;8.18;;
74679;SDS011;63211;48.548;2.704;2023-04-01T12:13:04;8.15;;;7.35;;
74679;SDS011;63211;48.548;2.704;2023-04-01T12:15:44;17.75;;;12.52;;
74679;SDS011;63211;48.548;2.704;2023-04-01T12:18:22;7.13;;;6.43;;
74679;SDS011;63211;48.548;2.704;2023-04-01T12:21:02;4.85;;;4.35;;
74679;SDS011;63211;48.548;2.704;2023-04-01T12:26:54;5.05;;;3.38;;
74679;SDS011;63211;48.548;2.704;2023-04-01T12:32:21;3.13;;;2.47;;
74679;SDS011;63211;48.548;2.704;2023-04-01T12:34:58;2.33;;;2.08;;
74679;SDS011;63211;48.548;2.704;2023-04-01T12:37:44;3.35;;;2.42;;
74679;SDS011;63211;48.548;2.704;2023-04-01T12:40:17;3.53;;;2.30;;
74679;SDS011;63211;48.548;2.704;2023-04-01T12:43:04;3.47;;;1.60;;
74679;SDS011;63211;48.548;2.704;2023-04-01T12:45:42;2.83;;;1.50;;
74679;SDS011;63211;48.548;2.704;2023-04-01T12:54:25;2.65;;;1.30;;
74679;SDS011;63211;48.548;2.704;2023-04-01T13:02:55;1.67;;;1.00;;
74679;SDS011;63211;48.548;2.704;2023-04-01T13:05:46;1.95;;;0.80;;
74679;SDS011;63211;48.548;2.704;2023-04-01T13:08:35;1.35;;;0.70;;
74679;SDS011;63211;48.548;2.704;2023-04-01T13:11:13;1.05;;;0.70;;
74679;SDS011;63211;48.548;2.704;2023-04-01T13:16:41;1.10;;;0.60;;
74679;SDS011;63211;48.548;2.704;2023-04-01T13:19:13;1.13;;;0.57;;
74679;SDS011;63211;48.548;2.704;2023-04-01T13:21:50;0.95;;;0.55;;
74679;SDS011;63211;48.548;2.704;2023-04-01T13:24:28;0.88;;;0.50;;
74679;SDS011;63211;48.548;2.704;2023-04-01T13:27:06;0.95;;;0.45;;
74679;SDS011;63211;48.548;2.704;2023-04-01T13:29:39;0.82;;;0.55;;
74679;SDS011;63211;48.548;2.704;2023-04-01T13:32:16;1.95;;;0.40;;
74679;SDS011;63211;48.548;2.704;2023-04-01T13:34:52;0.47;;;0.20;;
74679;SDS011;63211;48.548;2.704;2023-04-01T13:37:34;3.60;;;0.40;;
74679;SDS011;63211;48.548;2.704;2023-04-01T13:40:23;0.88;;;0.40;;
74679;SDS011;63211;48.548;2.704;2023-04-01T13:43:02;0.57;;;0.20;;
74679;SDS011;63211;48.548;2.704;2023-04-01T13:45:35;1.48;;;0.30;;
74679;SDS011;63211;48.548;2.704;2023-04-01T13:48:26;4.88;;;0.40;;
74679;SDS011;63211;48.548;2.704;2023-04-01T13:51:05;0.93;;;0.50;;
74679;SDS011;63211;48.548;2.704;2023-04-01T13:53:51;0.50;;;0.20;;
74679;SDS011;63211;48.548;2.704;2023-04-01T13:56:34;0.45;;;0.15;;
74679;SDS011;63211;48.548;2.704;2023-04-01T13:59:25;1.08;;;0.10;;
74679;SDS011;63211;48.548;2.704;2023-04-01T14:02:07;1.17;;;0.10;;
74679;SDS011;63211;48.548;2.704;2023-04-01T14:04:59;1.85;;;0.32;;
74679;SDS011;63211;48.548;2.704;2023-04-01T14:07:44;1.15;;;0.20;;
74679;SDS011;63211;48.548;2.704;2023-04-01T14:10:22;0.73;;;0.10;;
74679;SDS011;63211;48.548;2.704;2023-04-01T14:12:58;0.30;;;0.10;;
74679;SDS011;63211;48.548;2.704;2023-04-01T14:15:39;0.98;;;0.10;;
74679;SDS011;63211;48.548;2.704;2023-04-01T14:18:18;0.22;;;0.00;;
74679;SDS011;63211;48.548;2.704;2023-04-01T14:21:07;1.10;;;0.05;;
74679;SDS011;63211;48.548;2.704;2023-04-01T14:29:56;0.80;;;0.35;;
74679;SDS011;63211;48.548;2.704;2023-04-01T14:32:39;0.20;;;0.00;;
74679;SDS011;63211;48.548;2.704;2023-04-01T14:35:22;0.20;;;0.00;;
74679;SDS011;63211;48.548;2.704;2023-04-01T14:40:54;0.25;;;0.10;;
74679;SDS011;63211;48.548;2.704;2023-04-01T14:43:33;0.28;;;0.03;;
74679;SDS011;63211;48.548;2.704;2023-04-01T14:49:32;2.20;;;0.38;;
74679;SDS011;63211;48.548;2.704;2023-04-01T14:52:04;0.90;;;0.20;;
74679;SDS011;63211;48.548;2.704;2023-04-01T14:54:36;0.93;;;0.17;;
74679;SDS011;63211;48.548;2.704;2023-04-01T14:57:09;0.63;;;0.20;;
74679;SDS011;63211;48.548;2.704;2023-04-01T14:59:39;0.20;;;0.05;;
74679;SDS011;63211;48.548;2.704;2023-04-01T15:02:10;0.98;;;0.10;;
74679;SDS011;63211;48.548;2.704;2023-04-01T15:04:54;0.70;;;0.13;;
74679;SDS011;63211;48.548;2.704;2023-04-01T15:07:41;0.45;;;0.10;;
74679;SDS011;63211;48.548;2.704;2023-04-01T15:10:30;0.30;;;0.10;;
74679;SDS011;63211;48.548;2.704;2023-04-01T15:13:11;0.25;;;0.10;;
74679;SDS011;63211;48.548;2.704;2023-04-01T15:15:46;0.10;;;0.00;;
74679;SDS011;63211;48.548;2.704;2023-04-01T15:18:27;0.55;;;0.00;;
74679;SDS011;63211;48.548;2.704;2023-04-01T15:21:31;0.30;;;0.00;;
74679;SDS011;63211;48.548;2.704;2023-04-01T15:24:20;0.85;;;0.00;;
74679;SDS011;63211;48.548;2.704;2023-04-01T15:29:47;1.92;;;0.15;;
74679;SDS011;63211;48.548;2.704;2023-04-01T15:32:46;0.68;;;0.10;;
74679;SDS011;63211;48.548;2.704;2023-04-01T15:35:26;0.40;;;0.00;;
74679;SDS011;63211;48.548;2.704;2023-04-01T15:38:08;1.05;;;0.10;;
74679;SDS011;63211;48.548;2.704;2023-04-01T15:40:44;1.90;;;0.10;;
74679;SDS011;63211;48.548;2.704;2023-04-01T15:43:20;0.17;;;0.00;;
74679;SDS011;63211;48.548;2.704;2023-04-01T15:45:58;1.70;;;0.40;;
74679;SDS011;63211;48.548;2.704;2023-04-01T15:48:41;4.47;;;0.20;;
74679;SDS011;63211;48.548;2.704;2023-04-01T15:51:19;1.92;;;0.20;;
74679;SDS011;63211;48.548;2.704;2023-04-01T15:54:06;0.50;;;0.05;;
74679;SDS011;63211;48.548;2.704;2023-04-01T15:56:52;1.30;;;0.20;;
74679;SDS011;63211;48.548;2.704;2023-04-01T15:59:42;0.70;;;0.00;;
74679;SDS011;63211;48.548;2.704;2023-04-01T16:02:21;0.20;;;0.10;;
74679;SDS011;63211;48.548;2.704;2023-04-01T16:04:57;0.15;;;0.05;;
74679;SDS011;63211;48.548;2.704;2023-04-01T16:07:30;1.48;;;0.00;;
74679;SDS011;63211;48.548;2.704;2023-04-01T16:10:17;0.15;;;0.03;;
74679;SDS011;63211;48.548;2.704;2023-04-01T16:12:53;0.65;;;0.32;;
74679;SDS011;63211;48.548;2.704;2023-04-01T16:15:33;1.80;;;0.15;;
74679;SDS011;63211;48.548;2.704;2023-04-01T16:18:09;1.20;;;0.30;;
74679;SDS011;63211;48.548;2.704;2023-04-01T16:20:51;0.45;;;0.05;;
74679;SDS011;63211;48.548;2.704;2023-04-01T16:23:22;0.20;;;0.00;;
74679;SDS011;63211;48.548;2.704;2023-04-01T16:25:59;0.65;;;0.05;;
74679;SDS011;63211;48.548;2.704;2023-04-01T16:28:32;0.45;;;0.10;;
74679;SDS011;63211;48.548;2.704;2023-04-01T16:31:04;1.55;;;0.10;;
74679;SDS011;63211;48.548;2.704;2023-04-01T16:33:36;0.85;;;0.10;;
74679;SDS011;63211;48.548;2.704;2023-04-01T16:36:13;0.00;;;0.00;;
74679;SDS011;63211;48.548;2.704;2023-04-01T16:38:52;0.50;;;0.05;;
74679;SDS011;63211;48.548;2.704;2023-04-01T16:41:28;0.10;;;0.00;;
74679;SDS011;63211;48.548;2.704;2023-04-01T16:44:08;0.22;;;0.03;;
74679;SDS011;63211;48.548;2.704;2023-04-01T16:46:39;0.90;;;0.10;;
74679;SDS011;63211;48.548;2.704;2023-04-01T16:49:30;0.10;;;0.00;;
74679;SDS011;63211;48.548;2.704;2023-04-01T16:52:15;0.50;;;0.10;;
74679;SDS011;63211;48.548;2.704;2023-04-01T16:54:45;0.35;;;0.10;;
74679;SDS011;63211;48.548;2.704;2023-04-01T16:57:21;0.00;;;0.00;;
74679;SDS011;63211;48.548;2.704;2023-04-01T16:59:54;0.63;;;0.00;;
74679;SDS011;63211;48.548;2.704;2023-04-01T17:02:26;0.17;;;0.00;;
74679;SDS011;63211;48.548;2.704;2023-04-01T17:04:58;0.45;;;0.20;;
74679;SDS011;63211;48.548;2.704;2023-04-01T17:07:32;0.45;;;0.10;;
74679;SDS011;63211;48.548;2.704;2023-04-01T17:10:24;0.40;;;0.10;;